Hastings Natural History Reservation, California Weather observations

Data are for 10 minute period ending at time listed.
 Day   Time   Solar   Ave.   Ave.  Ave.  Vector  Max.   Baro.   Total    
  of    of     Rad.   Air    Rel.  Wind   Wind   Wind  Press.  Precip.   
Year   Day            Temp.  Hum.  Speed  Dir.   Gust                    
2014   (PST)  Kw/m2    F      %     mph   deg.    mph    mb.     in.     
-------------------------------------------------------------------------
 108    0:00   0.00   44.6    97    0.5   283     1.7   948.8    0.00 
 108    0:10   0.00   44.3    97    0.5    47     1.1   948.6    0.00 
 108    0:20   0.00   44.3    97    0.2    46     1.7   948.6    0.00 
 108    0:30   0.00   44.0    97    0.3    49     1.8   948.7    0.00 
 108    0:40   0.00   44.5    98    0.5   173     2.0   948.9    0.00 
 108    0:50   0.00   44.7    97    0.9    49     2.1   948.8    0.00 
 108    1:00   0.00   44.5    97    0.7    64     2.2   948.8    0.00 
 108    1:10   0.00   44.2    97    0.9    52     2.4   948.8    0.00 
 108    1:20   0.00   43.7    97    0.3    68     1.9   948.7    0.00 
 108    1:30   0.00   43.3    97    0.1   201     0.9   948.8    0.00 
 108    1:40   0.00   43.0    97    0.6   196     2.2   948.8    0.00 
 108    1:50   0.00   42.7    97    1.1    65     2.0   948.8    0.00 
 108    2:00   0.00   42.5    98    0.8    47     1.8   948.8    0.00 
 108    2:10   0.00   42.4    98    0.8    43     1.8   948.7    0.00 
 108    2:20   0.00   42.4    98    1.0    54     2.5   948.6    0.00 
 108    2:30   0.00   42.6    98    0.0    42     0.6   948.6    0.00 
 108    2:40   0.00   42.7    98    0.5    48     1.5   948.7    0.00 
 108    2:50   0.00   43.2    98    0.2    58     0.9   948.7    0.00 
 108    3:00   0.00   44.2    98    0.4    37     1.9   948.8    0.00 
 108    3:10   0.00   44.4    98    2.0    58     3.1   948.7    0.00 
 108    3:20   0.00   43.9    98    0.5    52     1.5   948.7    0.00 
 108    3:30   0.00   43.2    98    1.1    49     2.0   948.7    0.00 
 108    3:40   0.00   42.5    98    0.4    59     1.2   948.7    0.00 
 108    3:50   0.00   41.8    98    0.5    51     1.5   948.5    0.00 
 108    4:00   0.00   41.2    98    0.5    67     1.8   948.5    0.00 
 108    4:10   0.00   40.9    98    0.1    30     1.0   948.5    0.00 
 108    4:20   0.00   40.7    98    0.6    64     2.0   948.6    0.00 
 108    4:30   0.00   40.4    98    1.1    48     1.5   948.5    0.00 
 108    4:40   0.00   40.2    98    0.5    50     1.7   948.5    0.00 
 108    4:50   0.00   39.9    98    0.3    52     0.9   948.5    0.00 
 108    5:00   0.00   39.7    98    0.7    41     1.5   948.5    0.00 
 108    5:10   0.00   39.7    99    0.6    61     2.1   948.4    0.00 
 108    5:20   0.00   39.6    99    0.0     0     0.0   948.6    0.00 
 108    5:30   0.00   39.3    99    0.2    59     1.1   948.5    0.00 
 108    5:40   0.00   39.4    99    0.7    51     1.8   948.6    0.00 
 108    5:50   0.00   40.0   100    0.6    55     2.0   948.6    0.00 
 108    6:00   0.00   40.8   100    0.4    70     1.5   948.7    0.00 
 108    6:10   0.00   41.2   100    0.7    42     1.6   948.7    0.00 
 108    6:20   0.00   41.6   100    0.7    39     1.4   948.9    0.00 
 108    6:30   0.00   42.4   100    0.5   212     2.4   949.2    0.00 
 108    6:40   0.00   43.1   100    0.6    34     1.4   949.3    0.00 
 108    6:50   0.00   43.4   100    0.6    53     2.1   949.4    0.00 
 108    7:00   0.00   43.4   100    0.7    63     1.7   949.4    0.00 
 108    7:10   0.00   43.2   100    0.5    38     1.8   949.4    0.00 
 108    7:20   0.02   43.3   100    1.2   252     3.4   949.5    0.00 
 108    7:30   0.03   43.7   100    0.8   338     2.8   949.6    0.00 
 108    7:40   0.04   43.8   100    1.1   356     2.7   949.8    0.00 
 108    7:50   0.04   44.0   100    1.0   254     3.2   950.0    0.00 
 108    8:00   0.04   44.4   100    1.1   261     4.0   950.2    0.00 
 108    8:10   0.04   44.4   100    2.6   241     5.0   950.2    0.00 
 108    8:20   0.05   44.5   100    1.5   250     4.3   950.3    0.00 
 108    8:30   0.07   45.1   100    0.8   336     3.0   950.4    0.00 
 108    8:40   0.07   45.3   100    1.5   260     5.2   950.4    0.00 
 108    8:50   0.11   45.4   100    1.2   260     3.4   950.4    0.00 
 108    9:00   0.13   45.6   100    2.8   235     5.0   950.3    0.00 
 108    9:10   0.14   45.8   100    1.9   238     4.7   950.2    0.00 
 108    9:20   0.17   46.1   100    1.8   238     4.3   950.3    0.00 
 108    9:30   0.18   46.9   100    1.4   271     3.5   950.3    0.00 
 108    9:40   0.33   47.6   100    0.7   269     1.9   950.2    0.00 
 108    9:50   0.51   49.5    97    0.9   151     4.2   950.2    0.00 
 108   10:00   0.55   52.1    82    1.5   202     3.7   950.2    0.00 
 108   10:10   0.57   53.8    75    0.9   189     2.3   950.2    0.00 
 108   10:20   0.59   55.0    73    0.6   279     2.8   950.2    0.00 
 108   10:30   0.62   57.1    68    1.5   339     5.1   950.2    0.00 
 108   10:40   0.65   56.9    67    2.9   251     6.8   950.1    0.00 
 108   10:50   0.68   57.8    65    1.6   280     5.7   950.2    0.00 
 108   11:00   0.70   57.9    61    4.4   240     7.7   950.0    0.00 
 108   11:10   0.72   57.9    58    5.2   238     9.5   950.0    0.00 
 108   11:20   0.74   58.8    54    3.2   243     7.3   949.8    0.00 
 108   11:30   0.76   60.9    52    3.0   247     6.7   949.7    0.00 
 108   11:40   0.74   61.4    51    3.0   248     8.6   949.6    0.00 
 108   11:50   0.80   62.5    50    4.4   239     7.7   949.4    0.00 
 108   12:00   0.81   63.2    49    2.8   242     7.7   949.2    0.00 
 108   12:10   0.81   63.8    48    2.2   267     7.5   949.1    0.00 
 108   12:20   0.83   65.4    47    2.2   322     6.0   949.0    0.00 
 108   12:30   0.84   65.9    48    2.0   281     7.9   949.0    0.00 
 108   12:40   0.84   66.0    48    2.8   268     8.7   948.9    0.00 
 108   12:50   0.85   67.9    47    1.9   315     5.0   948.8    0.00 
 108   13:00   0.73   67.3    49    3.4   273     9.5   948.7    0.00 
 108   13:10   0.84   67.7    49    2.0   269     9.1   948.7    0.00 
 108   13:20   0.80   67.2    52    3.3   288     8.2   948.7    0.00 
 108   13:30   0.85   66.9    52    2.8   300     9.6   948.7    0.00 
 108   13:40   0.81   67.3    52    3.7   261     8.1   948.6    0.00 
 108   13:50   0.72   66.1    52    4.8   250     9.9   948.6    0.00 
 108   14:00   0.79   66.7    54    3.4   254     9.7   948.6    0.00 
 108   14:10   0.81   66.8    54    2.8   265    10.5   948.7    0.00 
 108   14:20   0.82   66.3    56    3.2   257    12.0   948.8    0.00 
 108   14:30   0.80   66.3    56    3.8   250     9.2   948.7    0.00 
 108   14:40   0.81   66.1    56    4.1   265    10.3   948.8    0.00 
 108   14:50   0.73   65.0    58    2.9   263     8.6   948.9    0.00 
 108   15:00   0.76   64.3    60    3.9   266     9.7   948.9    0.00 
 108   15:10   0.74   62.9    62    3.5   263    11.3   948.9    0.00 
 108   15:20   0.67   62.0    63    4.1   269    11.5   948.9    0.00 
 108   15:30   0.53   61.2    64    3.1   272     9.1   949.0    0.00 
 108   15:40   0.57   60.0    66    3.6   258    11.2   948.9    0.00 
 108   15:50   0.67   61.1    64    3.0   264     9.9   948.9    0.00 
 108   16:00   0.66   60.8    64    4.6   262    11.0   948.9    0.00 
 108   16:10   0.59   61.8    62    2.5   274     6.9   948.9    0.00 
 108   16:20   0.55   60.9    63    3.7   262     8.6   948.8    0.00 
 108   16:30   0.43   61.0    63    3.2   269     8.3   949.0    0.00 
 108   16:40   0.41   60.9    63    2.6   268     9.6   949.2    0.00 
 108   16:50   0.48   60.4    63    2.6   270    11.9   949.2    0.00 
 108   17:00   0.39   61.6    59    1.8   352     6.9   949.2    0.00 
 108   17:10   0.55   61.3    58    3.2   260     7.2   949.2    0.00 
 108   17:20   0.53   62.0    56    2.9   273     7.7   949.1    0.00 
 108   17:30   0.46   63.1    57    2.1   345     5.8   949.1    0.00 
 108   17:40   0.43   63.4    56    1.9   320     6.5   949.2    0.00 
 108   17:50   0.34   62.2    59    2.9   352     9.9   949.3    0.00 
 108   18:00   0.39   62.0    60    1.6   310     5.6   949.2    0.00 
 108   18:10   0.36   61.6    59    1.6   266     5.8   949.2    0.00 
 108   18:20   0.34   61.2    62    2.6   260     6.9   949.3    0.00 
 108   18:30   0.29   59.2    66    2.4   261     6.4   949.3    0.00 
 108   18:40   0.19   57.2    70    4.3   248     7.5   949.5    0.00 
 108   18:50   0.05   55.8    73    3.2   262     7.2   949.7    0.00 
 108   19:00   0.04   54.3    76    3.9   250     7.2   950.0    0.00 
 108   19:10   0.03   53.1    79    5.0   246     9.3   950.2    0.00 
 108   19:20   0.02   52.1    81    3.2   241     6.2   950.4    0.00 
 108   19:30   0.01   51.8    82    1.5   232     3.4   950.6    0.00 
 108   19:40   0.00   51.9    82    0.1   356     1.4   950.6    0.00 
 108   19:50   0.00   51.6    82    0.8    51     1.4   950.7    0.00 
 108   20:00   0.00   51.1    83    0.1    91     0.9   950.8    0.00 
 108   20:10   0.00   50.4    83    0.8    53     1.5   951.0    0.00 
 108   20:20   0.00   49.7    84    0.4    30     2.3   951.0    0.00 
 108   20:30   0.00   49.4    84    0.1   204     1.3   951.1    0.00 
 108   20:40   0.00   49.2    82    0.6   108     3.3   951.1    0.00 
 108   20:50   0.00   48.9    81    0.7   156     2.1   951.1    0.00 
 108   21:00   0.00   48.2    83    0.9   234     2.2   951.2    0.00 
 108   21:10   0.00   47.7    83    0.6   108     2.6   951.2    0.00 
 108   21:20   0.00   47.8    82    1.4    45     4.1   951.3    0.00 

Return to Hastings Natural History Reservation graphs page.


Western Regional Climate Center,wrcc@dri.edu